map of KAO home
Great Circle Mapper logo
KAO - Airport
Location
City:  Kuusamo, Finland
ICAO / IATA:EFKS / KAO

Details
Type:Airport (Aerodrome, Airfield)
Latitude:6559'15"N (65.987575)
Longitude:2914'22"E (29.239381)
Datum:WGS 1984
Elevation:866 ft (264 m)
Runways:1
Longest:8202 × 148 ft (2500 × 45 m), paved

Time
Time Zone:UTC+2 (DST+3)
Local Time:

Weather
METAR:EFKS 291420Z AUTO 04006KT 340V080 9999 OVC013 14/11 Q1010

Related Locations
Nearby:
Farthest:NZWD: 11253 mi / 18110 km
McMurdo Station [Williams Field], Ross Island, AQ

Find:

   beyond  
but within

Other Information
Maps:
NOTAMs:
Links:
Sources:

  
flag of Finland   

Sectional Chart

Flight Planning
at skyvector.com

Satellite Image

Google Maps Satellite View

 

Copyright © 2004-2014 Karl L. Swartz. All rights reserved.
The Great Circle Mapper name and logo are trademarks of the Great Circle Mapper.
All other trademarks mentioned herein belong to their respective owners.
Please see credits for attibutions and further copyright information.

  Follow gcmap on Facebook Follow gcmap on Twitter

hCard Microformat

Geo Microformat